sensor_id;sensor_type;location;lat;lon;timestamp;pressure;altitude;pressure_sealevel;temperature;humidity
38466;BME280;24244;51.950;5.902;2023-04-20T00:01:00;102246.03;;;9.10;41.88
38466;BME280;24244;51.950;5.902;2023-04-20T00:03:29;102244.66;;;9.06;41.76
38466;BME280;24244;51.950;5.902;2023-04-20T00:05:58;102229.31;;;8.99;42.08
38466;BME280;24244;51.950;5.902;2023-04-20T00:08:28;102233.91;;;8.97;42.25
38466;BME280;24244;51.950;5.902;2023-04-20T00:10:55;102237.69;;;8.95;42.37
38466;BME280;24244;51.950;5.902;2023-04-20T00:13:23;102224.94;;;8.89;42.11
38466;BME280;24244;51.950;5.902;2023-04-20T00:15:50;102223.16;;;8.89;42.47
38466;BME280;24244;51.950;5.902;2023-04-20T00:18:17;102221.63;;;8.87;42.26
38466;BME280;24244;51.950;5.902;2023-04-20T00:20:45;102215.63;;;8.85;42.58
38466;BME280;24244;51.950;5.902;2023-04-20T00:23:12;102206.97;;;8.83;42.37
38466;BME280;24244;51.950;5.902;2023-04-20T00:25:38;102196.47;;;8.81;42.26
38466;BME280;24244;51.950;5.902;2023-04-20T00:28:06;102188.81;;;8.78;42.78
38466;BME280;24244;51.950;5.902;2023-04-20T00:30:37;102183.78;;;8.75;42.55
38466;BME280;24244;51.950;5.902;2023-04-20T00:33:04;102180.59;;;8.72;42.81
38466;BME280;24244;51.950;5.902;2023-04-20T00:35:33;102178.91;;;8.71;42.80
38466;BME280;24244;51.950;5.902;2023-04-20T00:38:01;102169.28;;;8.70;43.01
38466;BME280;24244;51.950;5.902;2023-04-20T00:40:28;102169.28;;;8.70;42.92
38466;BME280;24244;51.950;5.902;2023-04-20T00:42:55;102170.56;;;8.66;43.15
38466;BME280;24244;51.950;5.902;2023-04-20T00:45:22;102155.03;;;8.61;42.87
38466;BME280;24244;51.950;5.902;2023-04-20T00:47:49;102151.00;;;8.57;42.86
38466;BME280;24244;51.950;5.902;2023-04-20T00:50:17;102146.81;;;8.54;43.07
38466;BME280;24244;51.950;5.902;2023-04-20T00:52:45;102145.84;;;8.55;43.10
38466;BME280;24244;51.950;5.902;2023-04-20T00:55:19;102136.50;;;8.51;43.09
38466;BME280;24244;51.950;5.902;2023-04-20T00:57:48;102124.38;;;8.49;43.19
38466;BME280;24244;51.950;5.902;2023-04-20T01:00:16;102127.28;;;8.46;43.10
38466;BME280;24244;51.950;5.902;2023-04-20T01:02:47;102123.97;;;8.44;43.15
38466;BME280;24244;51.950;5.902;2023-04-20T01:05:14;102124.22;;;8.41;43.32
38466;BME280;24244;51.950;5.902;2023-04-20T01:07:41;102117.25;;;8.40;43.41
38466;BME280;24244;51.950;5.902;2023-04-20T01:10:09;102109.47;;;8.38;43.51
38466;BME280;24244;51.950;5.902;2023-04-20T01:12:37;102109.84;;;8.34;43.66
38466;BME280;24244;51.950;5.902;2023-04-20T01:15:06;102107.22;;;8.34;43.94
38466;BME280;24244;51.950;5.902;2023-04-20T01:17:34;102103.72;;;8.33;43.82
38466;BME280;24244;51.950;5.902;2023-04-20T01:20:04;102104.69;;;8.32;44.14
38466;BME280;24244;51.950;5.902;2023-04-20T01:22:43;102103.72;;;8.33;44.43
38466;BME280;24244;51.950;5.902;2023-04-20T01:25:11;102095.91;;;8.32;44.35
38466;BME280;24244;51.950;5.902;2023-04-20T01:27:38;102087.81;;;8.33;44.72
38466;BME280;24244;51.950;5.902;2023-04-20T01:30:06;102082.38;;;8.35;44.55
38466;BME280;24244;51.950;5.902;2023-04-20T01:32:33;102077.81;;;8.37;44.75
38466;BME280;24244;51.950;5.902;2023-04-20T01:35:01;102066.06;;;8.39;45.17
38466;BME280;24244;51.950;5.902;2023-04-20T01:37:28;102072.06;;;8.41;45.38
38466;BME280;24244;51.950;5.902;2023-04-20T01:39:59;102064.81;;;8.43;45.32
38466;BME280;24244;51.950;5.902;2023-04-20T01:42:26;102050.31;;;8.47;45.60
38466;BME280;24244;51.950;5.902;2023-04-20T01:44:56;102054.50;;;8.50;45.70
38466;BME280;24244;51.950;5.902;2023-04-20T01:47:23;102062.31;;;8.51;46.13
38466;BME280;24244;51.950;5.902;2023-04-20T01:49:52;102054.38;;;8.51;46.19
38466;BME280;24244;51.950;5.902;2023-04-20T01:52:19;102053.53;;;8.51;46.63
38466;BME280;24244;51.950;5.902;2023-04-20T01:54:47;102046.56;;;8.50;46.57
38466;BME280;24244;51.950;5.902;2023-04-20T01:57:16;102049.19;;;8.50;46.65
38466;BME280;24244;51.950;5.902;2023-04-20T01:59:47;102047.53;;;8.49;47.06
38466;BME280;24244;51.950;5.902;2023-04-20T02:02:16;102032.47;;;8.49;47.29
38466;BME280;24244;51.950;5.902;2023-04-20T02:04:43;102036.94;;;8.49;47.29
38466;BME280;24244;51.950;5.902;2023-04-20T02:07:10;102032.59;;;8.48;47.25
38466;BME280;24244;51.950;5.902;2023-04-20T02:09:37;102040.53;;;8.48;47.64
38466;BME280;24244;51.950;5.902;2023-04-20T02:12:04;102039.03;;;8.45;47.81
38466;BME280;24244;51.950;5.902;2023-04-20T02:14:33;102027.72;;;8.43;47.59
38466;BME280;24244;51.950;5.902;2023-04-20T02:17:01;102026.06;;;8.42;47.91
38466;BME280;24244;51.950;5.902;2023-04-20T02:19:28;102020.63;;;8.44;47.93
38466;BME280;24244;51.950;5.902;2023-04-20T02:21:57;102017.97;;;8.44;48.30
38466;BME280;24244;51.950;5.902;2023-04-20T02:24:25;102007.66;;;8.41;48.58
38466;BME280;24244;51.950;5.902;2023-04-20T02:26:52;102009.44;;;8.40;48.62
38466;BME280;24244;51.950;5.902;2023-04-20T02:29:22;102007.66;;;8.41;48.54
38466;BME280;24244;51.950;5.902;2023-04-20T02:31:50;102001.25;;;8.43;48.49
38466;BME280;24244;51.950;5.902;2023-04-20T02:34:17;101998.28;;;8.46;48.60
38466;BME280;24244;51.950;5.902;2023-04-20T02:36:44;102000.09;;;8.46;48.60
38466;BME280;24244;51.950;5.902;2023-04-20T02:39:12;101988.53;;;8.47;48.74
38466;BME280;24244;51.950;5.902;2023-04-20T02:41:39;102002.63;;;8.47;48.88
38466;BME280;24244;51.950;5.902;2023-04-20T02:44:06;101995.81;;;8.45;49.08
38466;BME280;24244;51.950;5.902;2023-04-20T02:46:33;101981.41;;;8.47;48.91
38466;BME280;24244;51.950;5.902;2023-04-20T02:49:03;101992.97;;;8.46;49.37
38466;BME280;24244;51.950;5.902;2023-04-20T02:51:30;101984.38;;;8.44;49.57
38466;BME280;24244;51.950;5.902;2023-04-20T02:53:58;101983.41;;;8.45;49.55
38466;BME280;24244;51.950;5.902;2023-04-20T02:56:26;101975.28;;;8.47;49.93
38466;BME280;24244;51.950;5.902;2023-04-20T02:58:54;101973.34;;;8.49;50.12
38466;BME280;24244;51.950;5.902;2023-04-20T03:01:21;101978.50;;;8.50;49.97
38466;BME280;24244;51.950;5.902;2023-04-20T03:03:51;101981.16;;;8.50;50.14
38466;BME280;24244;51.950;5.902;2023-04-20T03:06:20;101978.34;;;8.52;50.50
38466;BME280;24244;51.950;5.902;2023-04-20T03:08:47;101974.88;;;8.51;50.80
38466;BME280;24244;51.950;5.902;2023-04-20T03:11:19;101968.59;;;8.52;50.54
38466;BME280;24244;51.950;5.902;2023-04-20T03:13:46;101960.47;;;8.54;50.59
38466;BME280;24244;51.950;5.902;2023-04-20T03:16:13;101959.22;;;8.58;50.24
38466;BME280;24244;51.950;5.902;2023-04-20T03:18:40;101953.78;;;8.59;50.56
38466;BME280;24244;51.950;5.902;2023-04-20T03:21:07;101951.81;;;8.61;50.78
38466;BME280;24244;51.950;5.902;2023-04-20T03:23:35;101947.34;;;8.62;51.02
38466;BME280;24244;51.950;5.902;2023-04-20T03:26:02;101951.53;;;8.64;51.06
38466;BME280;24244;51.950;5.902;2023-04-20T03:28:30;101940.94;;;8.64;51.10
38466;BME280;24244;51.950;5.902;2023-04-20T03:30:57;101933.13;;;8.63;51.32
38466;BME280;24244;51.950;5.902;2023-04-20T03:33:29;101937.31;;;8.66;51.36
38466;BME280;24244;51.950;5.902;2023-04-20T03:35:58;101930.34;;;8.64;51.48
38466;BME280;24244;51.950;5.902;2023-04-20T03:38:26;101933.81;;;8.65;51.26
38466;BME280;24244;51.950;5.902;2023-04-20T03:40:56;101934.78;;;8.64;51.54
38466;BME280;24244;51.950;5.902;2023-04-20T03:43:24;101940.63;;;8.68;51.54
38466;BME280;24244;51.950;5.902;2023-04-20T03:45:51;101934.78;;;8.64;51.94
38466;BME280;24244;51.950;5.902;2023-04-20T03:48:19;101929.19;;;8.67;51.66
38466;BME280;24244;51.950;5.902;2023-04-20T03:50:45;101940.50;;;8.69;51.98
38466;BME280;24244;51.950;5.902;2023-04-20T03:53:14;101933.50;;;8.68;52.10
38466;BME280;24244;51.950;5.902;2023-04-20T03:55:41;101934.50;;;8.67;52.03
38466;BME280;24244;51.950;5.902;2023-04-20T03:58:26;101926.41;;;8.69;52.13
38466;BME280;24244;51.950;5.902;2023-04-20T04:01:03;101929.75;;;8.71;52.09
38466;BME280;24244;51.950;5.902;2023-04-20T04:03:37;101919.16;;;8.71;52.03
38466;BME280;24244;51.950;5.902;2023-04-20T04:06:04;101915.66;;;8.70;52.04
38466;BME280;24244;51.950;5.902;2023-04-20T04:08:31;101913.84;;;8.71;52.05
38466;BME280;24244;51.950;5.902;2023-04-20T04:10:58;101911.34;;;8.69;52.12
38466;BME280;24244;51.950;5.902;2023-04-20T04:13:28;101910.22;;;8.72;52.46
38466;BME280;24244;51.950;5.902;2023-04-20T04:15:58;101896.13;;;8.71;52.20
38466;BME280;24244;51.950;5.902;2023-04-20T04:18:25;101901.44;;;8.71;52.24
38466;BME280;24244;51.950;5.902;2023-04-20T04:20:57;101901.56;;;8.70;52.49
38466;BME280;24244;51.950;5.902;2023-04-20T04:23:24;101893.34;;;8.73;52.58
38466;BME280;24244;51.950;5.902;2023-04-20T04:25:54;101888.88;;;8.73;52.57
38466;BME280;24244;51.950;5.902;2023-04-20T04:28:23;101882.56;;;8.74;52.53
38466;BME280;24244;51.950;5.902;2023-04-20T04:30:53;101883.41;;;8.75;52.52
38466;BME280;24244;51.950;5.902;2023-04-20T04:33:19;101881.59;;;8.75;52.41
38466;BME280;24244;51.950;5.902;2023-04-20T04:35:47;101880.59;;;8.76;52.57
38466;BME280;24244;51.950;5.902;2023-04-20T04:38:15;101873.34;;;8.78;52.62
38466;BME280;24244;51.950;5.902;2023-04-20T04:40:44;101876.84;;;8.79;52.68
38466;BME280;24244;51.950;5.902;2023-04-20T04:43:13;101884.94;;;8.77;52.63
38466;BME280;24244;51.950;5.902;2023-04-20T04:45:40;101886.47;;;8.80;52.84
38466;BME280;24244;51.950;5.902;2023-04-20T04:48:08;101885.19;;;8.84;52.51
38466;BME280;24244;51.950;5.902;2023-04-20T04:50:38;101890.63;;;8.82;52.99
38466;BME280;24244;51.950;5.902;2023-04-20T04:53:08;101882.84;;;8.81;53.06
38466;BME280;24244;51.950;5.902;2023-04-20T04:55:40;101887.44;;;8.79;53.03
38466;BME280;24244;51.950;5.902;2023-04-20T04:58:08;101884.66;;;8.80;53.11
38466;BME280;24244;51.950;5.902;2023-04-20T05:03:28;101883.91;;;8.88;53.04
38466;BME280;24244;51.950;5.902;2023-04-20T05:05:56;101881.94;;;8.90;53.09
38466;BME280;24244;51.950;5.902;2023-04-20T05:08:23;101887.09;;;8.91;53.08
38466;BME280;24244;51.950;5.902;2023-04-20T05:10:50;101886.41;;;8.89;53.18
38466;BME280;24244;51.950;5.902;2023-04-20T05:13:17;101889.06;;;8.89;52.89
38466;BME280;24244;51.950;5.902;2023-04-20T05:15:45;101884.59;;;8.90;53.20
38466;BME280;24244;51.950;5.902;2023-04-20T05:18:12;101876.50;;;8.91;53.24
38466;BME280;24244;51.950;5.902;2023-04-20T05:20:42;101875.50;;;8.92;53.26
38466;BME280;24244;51.950;5.902;2023-04-20T05:23:11;101889.47;;;8.94;53.39
38466;BME280;24244;51.950;5.902;2023-04-20T05:25:39;101882.16;;;8.96;53.24
38466;BME280;24244;51.950;5.902;2023-04-20T05:28:08;101889.16;;;8.97;53.28
38466;BME280;24244;51.950;5.902;2023-04-20T05:30:35;101883.00;;;8.97;53.36
38466;BME280;24244;51.950;5.902;2023-04-20T05:33:06;101879.38;;;8.98;53.49
38466;BME280;24244;51.950;5.902;2023-04-20T05:35:36;101882.16;;;8.96;53.71
38466;BME280;24244;51.950;5.902;2023-04-20T05:38:04;101876.22;;;8.94;53.44
38466;BME280;24244;51.950;5.902;2023-04-20T05:40:33;101878.53;;;8.97;53.37
38466;BME280;24244;51.950;5.902;2023-04-20T05:43:03;101873.94;;;8.99;53.64
38466;BME280;24244;51.950;5.902;2023-04-20T05:45:30;101862.63;;;8.97;53.89
38466;BME280;24244;51.950;5.902;2023-04-20T05:47:59;101871.75;;;8.95;54.01
38466;BME280;24244;51.950;5.902;2023-04-20T05:50:26;101865.44;;;8.96;53.85
38466;BME280;24244;51.950;5.902;2023-04-20T05:52:53;101870.31;;;9.00;54.14
38466;BME280;24244;51.950;5.902;2023-04-20T05:55:25;101864.53;;;9.05;53.79
38466;BME280;24244;51.950;5.902;2023-04-20T05:57:57;101864.41;;;9.07;53.98
38466;BME280;24244;51.950;5.902;2023-04-20T06:00:24;101861.28;;;9.11;54.00
38466;BME280;24244;51.950;5.902;2023-04-20T06:02:52;101866.00;;;9.17;53.87
38466;BME280;24244;51.950;5.902;2023-04-20T06:05:21;101863.88;;;9.21;54.17
38466;BME280;24244;51.950;5.902;2023-04-20T06:07:48;101865.69;;;9.20;53.99
38466;BME280;24244;51.950;5.902;2023-04-20T06:10:17;101868.06;;;9.23;53.82
38466;BME280;24244;51.950;5.902;2023-04-20T06:12:48;101864.63;;;9.31;53.95
38466;BME280;24244;51.950;5.902;2023-04-20T06:15:16;101859.03;;;9.34;54.09
38466;BME280;24244;51.950;5.902;2023-04-20T06:17:46;101862.38;;;9.36;53.87
38466;BME280;24244;51.950;5.902;2023-04-20T06:20:12;101862.91;;;9.39;53.95
38466;BME280;24244;51.950;5.902;2023-04-20T06:22:41;101856.47;;;9.42;54.09
38466;BME280;24244;51.950;5.902;2023-04-20T06:25:10;101860.47;;;9.46;53.95
38466;BME280;24244;51.950;5.902;2023-04-20T06:27:38;101865.50;;;9.49;54.01
38466;BME280;24244;51.950;5.902;2023-04-20T06:30:07;101858.38;;;9.50;53.80
38466;BME280;24244;51.950;5.902;2023-04-20T06:32:35;101860.25;;;9.57;53.93
38466;BME280;24244;51.950;5.902;2023-04-20T06:35:04;101856.16;;;9.63;54.00
38466;BME280;24244;51.950;5.902;2023-04-20T06:37:31;101851.75;;;9.71;54.07
38466;BME280;24244;51.950;5.902;2023-04-20T06:40:00;101858.13;;;9.78;53.83
38466;BME280;24244;51.950;5.902;2023-04-20T06:42:27;101858.63;;;9.82;53.97
38466;BME280;24244;51.950;5.902;2023-04-20T06:44:54;101857.84;;;9.90;53.95
38466;BME280;24244;51.950;5.902;2023-04-20T06:47:25;101869.66;;;9.95;53.80
38466;BME280;24244;51.950;5.902;2023-04-20T06:49:58;101855.63;;;10.03;53.76
38466;BME280;24244;51.950;5.902;2023-04-20T06:52:25;101847.72;;;10.11;53.64
38466;BME280;24244;51.950;5.902;2023-04-20T06:54:54;101862.06;;;10.18;53.81
38466;BME280;24244;51.950;5.902;2023-04-20T06:57:20;101853.38;;;10.16;53.58
38466;BME280;24244;51.950;5.902;2023-04-20T06:59:47;101853.03;;;10.11;53.59
38466;BME280;24244;51.950;5.902;2023-04-20T07:02:14;101854.00;;;10.10;53.76
38466;BME280;24244;51.950;5.902;2023-04-20T07:04:43;101855.81;;;10.09;54.34
38466;BME280;24244;51.950;5.902;2023-04-20T07:07:09;101853.03;;;10.11;53.86
38466;BME280;24244;51.950;5.902;2023-04-20T07:09:36;101856.38;;;10.13;54.35
38466;BME280;24244;51.950;5.902;2023-04-20T07:12:06;101859.41;;;10.18;54.45
38466;BME280;24244;51.950;5.902;2023-04-20T07:14:32;101857.72;;;10.17;54.33
38466;BME280;24244;51.950;5.902;2023-04-20T07:16:59;101857.72;;;10.17;54.60
38466;BME280;24244;51.950;5.902;2023-04-20T07:19:26;101853.56;;;10.14;54.38
38466;BME280;24244;51.950;5.902;2023-04-20T07:21:54;101857.88;;;10.15;54.67
38466;BME280;24244;51.950;5.902;2023-04-20T07:24:22;101858.66;;;10.08;54.54
38466;BME280;24244;51.950;5.902;2023-04-20T07:26:52;101859.09;;;10.03;54.62
38466;BME280;24244;51.950;5.902;2023-04-20T07:29:21;101859.25;;;10.02;54.65
38466;BME280;24244;51.950;5.902;2023-04-20T07:31:48;101854.13;;;10.00;55.24
38466;BME280;24244;51.950;5.902;2023-04-20T07:34:15;101860.28;;;10.01;55.11
38466;BME280;24244;51.950;5.902;2023-04-20T07:36:43;101862.75;;;10.02;55.23
38466;BME280;24244;51.950;5.902;2023-04-20T07:39:11;101862.44;;;10.05;55.01
38466;BME280;24244;51.950;5.902;2023-04-20T07:41:39;101852.34;;;10.09;54.96
38466;BME280;24244;51.950;5.902;2023-04-20T07:44:06;101849.38;;;10.12;55.07
38466;BME280;24244;51.950;5.902;2023-04-20T07:46:37;101849.75;;;10.17;55.30
38466;BME280;24244;51.950;5.902;2023-04-20T07:49:04;101845.97;;;10.19;55.25
38466;BME280;24244;51.950;5.902;2023-04-20T07:51:33;101833.19;;;10.23;55.39
38466;BME280;24244;51.950;5.902;2023-04-20T07:54:00;101831.06;;;10.27;55.28
38466;BME280;24244;51.950;5.902;2023-04-20T07:56:29;101830.28;;;10.34;55.18
38466;BME280;24244;51.950;5.902;2023-04-20T07:58:55;101833.81;;;10.43;55.06
38466;BME280;24244;51.950;5.902;2023-04-20T08:01:23;101838.34;;;10.50;55.04
38466;BME280;24244;51.950;5.902;2023-04-20T08:03:51;101829.38;;;10.51;55.03
38466;BME280;24244;51.950;5.902;2023-04-20T08:06:18;101836.97;;;10.46;54.74
38466;BME280;24244;51.950;5.902;2023-04-20T08:08:45;101839.97;;;10.43;54.96
38466;BME280;24244;51.950;5.902;2023-04-20T08:11:12;101838.28;;;10.42;55.17
38466;BME280;24244;51.950;5.902;2023-04-20T08:13:40;101833.44;;;10.38;55.26
38466;BME280;24244;51.950;5.902;2023-04-20T08:16:07;101834.28;;;10.38;55.04
38466;BME280;24244;51.950;5.902;2023-04-20T08:18:33;101826.97;;;10.40;55.49
38466;BME280;24244;51.950;5.902;2023-04-20T08:21:00;101837.13;;;10.45;55.63
38466;BME280;24244;51.950;5.902;2023-04-20T08:23:28;101836.13;;;10.46;55.52
38466;BME280;24244;51.950;5.902;2023-04-20T08:25:56;101836.66;;;10.49;55.50
38466;BME280;24244;51.950;5.902;2023-04-20T08:28:23;101835.50;;;10.52;55.43
38466;BME280;24244;51.950;5.902;2023-04-20T08:31:00;101821.91;;;10.55;55.28
38466;BME280;24244;51.950;5.902;2023-04-20T08:33:28;101823.22;;;10.59;55.28
38466;BME280;24244;51.950;5.902;2023-04-20T08:35:56;101820.25;;;10.62;55.36
38466;BME280;24244;51.950;5.902;2023-04-20T08:38:23;101824.44;;;10.65;55.11
38466;BME280;24244;51.950;5.902;2023-04-20T08:40:59;101818.59;;;10.61;55.32
38466;BME280;24244;51.950;5.902;2023-04-20T08:43:26;101813.28;;;10.61;55.49
38466;BME280;24244;51.950;5.902;2023-04-20T08:45:56;101815.09;;;10.60;55.56
38466;BME280;24244;51.950;5.902;2023-04-20T08:48:33;101811.59;;;10.60;55.64
38466;BME280;24244;51.950;5.902;2023-04-20T08:51:01;101816.94;;;10.60;55.44
38466;BME280;24244;51.950;5.902;2023-04-20T08:53:29;101821.09;;;10.63;55.75
38466;BME280;24244;51.950;5.902;2023-04-20T08:55:56;101815.78;;;10.63;55.62
38466;BME280;24244;51.950;5.902;2023-04-20T08:58:23;101817.75;;;10.60;55.62
38466;BME280;24244;51.950;5.902;2023-04-20T09:00:51;101813.97;;;10.63;56.10
38466;BME280;24244;51.950;5.902;2023-04-20T09:03:32;101822.78;;;10.64;55.70
38466;BME280;24244;51.950;5.902;2023-04-20T09:06:00;101810.81;;;10.68;55.79
38466;BME280;24244;51.950;5.902;2023-04-20T09:08:34;101802.53;;;10.71;55.88
38466;BME280;24244;51.950;5.902;2023-04-20T09:11:01;101808.53;;;10.73;55.83
38466;BME280;24244;51.950;5.902;2023-04-20T09:13:28;101816.50;;;10.73;55.74
38466;BME280;24244;51.950;5.902;2023-04-20T09:15:54;101816.31;;;10.74;55.89
38466;BME280;24244;51.950;5.902;2023-04-20T09:18:21;101813.34;;;10.77;55.84
38466;BME280;24244;51.950;5.902;2023-04-20T09:20:51;101819.50;;;10.78;55.67
38466;BME280;24244;51.950;5.902;2023-04-20T09:23:19;101811.50;;;10.78;55.67
38466;BME280;24244;51.950;5.902;2023-04-20T09:25:50;101818.81;;;10.76;55.83
38466;BME280;24244;51.950;5.902;2023-04-20T09:28:18;101815.13;;;10.69;56.02
38466;BME280;24244;51.950;5.902;2023-04-20T09:30:47;101819.97;;;10.65;55.91
38466;BME280;24244;51.950;5.902;2023-04-20T09:33:14;101806.47;;;10.67;56.21
38466;BME280;24244;51.950;5.902;2023-04-20T09:35:42;101819.13;;;10.65;56.52
38466;BME280;24244;51.950;5.902;2023-04-20T09:38:15;101830.91;;;10.62;56.19
38466;BME280;24244;51.950;5.902;2023-04-20T09:40:42;101816.94;;;10.60;56.20
38466;BME280;24244;51.950;5.902;2023-04-20T09:43:13;101825.41;;;10.55;56.18
38466;BME280;24244;51.950;5.902;2023-04-20T09:45:50;101814.56;;;10.49;56.33
38466;BME280;24244;51.950;5.902;2023-04-20T09:48:17;101814.88;;;10.46;56.78
38466;BME280;24244;51.950;5.902;2023-04-20T09:50:47;101806.06;;;10.45;56.70
38466;BME280;24244;51.950;5.902;2023-04-20T09:53:18;101809.91;;;10.43;56.54
38466;BME280;24244;51.950;5.902;2023-04-20T09:55:45;101809.91;;;10.43;56.51
38466;BME280;24244;51.950;5.902;2023-04-20T09:58:13;101810.72;;;10.43;56.80
38466;BME280;24244;51.950;5.902;2023-04-20T10:00:41;101802.56;;;10.45;56.80
38466;BME280;24244;51.950;5.902;2023-04-20T10:03:08;101801.13;;;10.50;56.63
38466;BME280;24244;51.950;5.902;2023-04-20T10:05:37;101802.16;;;10.57;56.48
38466;BME280;24244;51.950;5.902;2023-04-20T10:08:05;101805.97;;;10.63;56.76
38466;BME280;24244;51.950;5.902;2023-04-20T10:10:44;101796.53;;;10.69;56.68
38466;BME280;24244;51.950;5.902;2023-04-20T10:13:12;101804.00;;;10.73;56.77
38466;BME280;24244;51.950;5.902;2023-04-20T10:15:41;101790.41;;;10.76;56.38
38466;BME280;24244;51.950;5.902;2023-04-20T10:18:22;101785.09;;;10.84;56.26
38466;BME280;24244;51.950;5.902;2023-04-20T10:20:51;101784.78;;;10.95;56.28
38466;BME280;24244;51.950;5.902;2023-04-20T10:23:29;101781.00;;;11.06;56.17
38466;BME280;24244;51.950;5.902;2023-04-20T10:25:59;101779.66;;;11.18;55.76
38466;BME280;24244;51.950;5.902;2023-04-20T10:28:36;101778.00;;;11.25;56.02
38466;BME280;24244;51.950;5.902;2023-04-20T10:31:06;101766.03;;;11.29;55.65
38466;BME280;24244;51.950;5.902;2023-04-20T10:33:34;101762.88;;;11.34;55.74
38466;BME280;24244;51.950;5.902;2023-04-20T10:36:03;101756.19;;;11.38;55.78
38466;BME280;24244;51.950;5.902;2023-04-20T10:38:31;101752.22;;;11.42;55.61
38466;BME280;24244;51.950;5.902;2023-04-20T10:41:05;101751.03;;;11.45;55.31
38466;BME280;24244;51.950;5.902;2023-04-20T10:43:33;101749.56;;;11.42;55.16
38466;BME280;24244;51.950;5.902;2023-04-20T10:46:17;101751.72;;;11.47;55.14
38466;BME280;24244;51.950;5.902;2023-04-20T10:48:52;101747.53;;;11.52;55.12
38466;BME280;24244;51.950;5.902;2023-04-20T10:51:19;101755.22;;;11.55;54.76
38466;BME280;24244;51.950;5.902;2023-04-20T10:53:56;101756.53;;;11.59;54.94
38466;BME280;24244;51.950;5.902;2023-04-20T10:56:24;101757.88;;;11.63;55.04
38466;BME280;24244;51.950;5.902;2023-04-20T10:59:04;101749.88;;;11.63;54.75
38466;BME280;24244;51.950;5.902;2023-04-20T11:01:32;101747.84;;;11.65;55.05
38466;BME280;24244;51.950;5.902;2023-04-20T11:03:59;101738.38;;;11.71;54.50
38466;BME280;24244;51.950;5.902;2023-04-20T11:06:29;101731.72;;;11.75;54.76
38466;BME280;24244;51.950;5.902;2023-04-20T11:08:56;101735.53;;;11.81;54.50
38466;BME280;24244;51.950;5.902;2023-04-20T11:11:35;101740.72;;;11.82;54.52
38466;BME280;24244;51.950;5.902;2023-04-20T11:14:08;101732.03;;;11.80;54.55
38466;BME280;24244;51.950;5.902;2023-04-20T11:16:38;101728.38;;;11.81;54.47
38466;BME280;24244;51.950;5.902;2023-04-20T11:19:21;101727.53;;;11.81;54.54
38466;BME280;24244;51.950;5.902;2023-04-20T11:21:49;101727.75;;;11.79;54.71
38466;BME280;24244;51.950;5.902;2023-04-20T11:24:17;101730.72;;;11.76;54.50
38466;BME280;24244;51.950;5.902;2023-04-20T11:26:48;101724.41;;;11.77;54.58
38466;BME280;24244;51.950;5.902;2023-04-20T11:29:31;101716.25;;;11.79;54.66
38466;BME280;24244;51.950;5.902;2023-04-20T11:32:00;101709.25;;;11.77;54.50
38466;BME280;24244;51.950;5.902;2023-04-20T11:34:28;101705.41;;;11.80;54.35
38466;BME280;24244;51.950;5.902;2023-04-20T11:36:55;101711.56;;;11.81;54.45
38466;BME280;24244;51.950;5.902;2023-04-20T11:39:23;101701.75;;;11.81;54.22
38466;BME280;24244;51.950;5.902;2023-04-20T11:41:51;101704.75;;;11.86;54.27
38466;BME280;24244;51.950;5.902;2023-04-20T11:44:19;101708.88;;;11.89;54.29
38466;BME280;24244;51.950;5.902;2023-04-20T11:46:49;101695.22;;;11.92;54.29
38466;BME280;24244;51.950;5.902;2023-04-20T11:49:16;101693.41;;;11.92;54.15
38466;BME280;24244;51.950;5.902;2023-04-20T11:51:43;101710.38;;;11.91;54.11
38466;BME280;24244;51.950;5.902;2023-04-20T11:54:13;101695.56;;;11.89;54.05
38466;BME280;24244;51.950;5.902;2023-04-20T11:56:41;101707.06;;;11.81;53.84
38466;BME280;24244;51.950;5.902;2023-04-20T11:59:09;101711.94;;;11.77;53.66
38466;BME280;24244;51.950;5.902;2023-04-20T12:01:37;101709.44;;;11.76;53.72
38466;BME280;24244;51.950;5.902;2023-04-20T12:04:04;101702.44;;;11.75;53.73
38466;BME280;24244;51.950;5.902;2023-04-20T12:06:32;101698.44;;;11.71;53.61
38466;BME280;24244;51.950;5.902;2023-04-20T12:08:59;101694.09;;;11.70;53.49
38466;BME280;24244;51.950;5.902;2023-04-20T12:11:26;101693.59;;;11.74;53.74
38466;BME280;24244;51.950;5.902;2023-04-20T12:13:53;101695.09;;;11.77;54.05
38466;BME280;24244;51.950;5.902;2023-04-20T12:16:23;101685.94;;;11.80;54.05
38466;BME280;24244;51.950;5.902;2023-04-20T12:18:50;101696.09;;;11.84;54.20
38466;BME280;24244;51.950;5.902;2023-04-20T12:21:18;101694.09;;;11.86;54.09
38466;BME280;24244;51.950;5.902;2023-04-20T12:23:46;101697.56;;;11.87;54.18
38466;BME280;24244;51.950;5.902;2023-04-20T12:26:15;101693.44;;;11.84;54.12
38466;BME280;24244;51.950;5.902;2023-04-20T12:28:42;101701.75;;;11.81;53.98
38466;BME280;24244;51.950;5.902;2023-04-20T12:31:10;101695.09;;;11.77;54.00
38466;BME280;24244;51.950;5.902;2023-04-20T12:33:40;101688.94;;;11.76;54.23
38466;BME280;24244;51.950;5.902;2023-04-20T12:36:11;101685.13;;;11.71;53.99
38466;BME280;24244;51.950;5.902;2023-04-20T12:38:38;101694.94;;;11.70;53.99
38466;BME280;24244;51.950;5.902;2023-04-20T12:41:04;101697.09;;;11.75;53.93
38466;BME280;24244;51.950;5.902;2023-04-20T12:43:33;101684.63;;;11.75;54.00
38466;BME280;24244;51.950;5.902;2023-04-20T12:45:59;101688.13;;;11.76;53.72
38466;BME280;24244;51.950;5.902;2023-04-20T12:48:27;101689.63;;;11.79;54.03
38466;BME280;24244;51.950;5.902;2023-04-20T12:50:55;101688.25;;;11.83;54.16
38466;BME280;24244;51.950;5.902;2023-04-20T12:53:22;101686.75;;;11.88;54.10
38466;BME280;24244;51.950;5.902;2023-04-20T12:55:48;101683.38;;;11.94;53.72
38466;BME280;24244;51.950;5.902;2023-04-20T12:58:26;101689.88;;;12.00;53.69
38466;BME280;24244;51.950;5.902;2023-04-20T13:00:52;101683.72;;;11.99;53.72
38466;BME280;24244;51.950;5.902;2023-04-20T13:03:19;101695.38;;;11.98;53.57
38466;BME280;24244;51.950;5.902;2023-04-20T13:05:46;101677.72;;;11.97;53.89